Terminal Aerodrome Forecast
Issued by NWS Greer, SC

Home | Current Version | Previous Version | Text Only | Print | Product List | Glossary On
Versions: 1 2 3 4 5 6 7 8 9 10 11 12 13 14 15
000
FTUS42 KGSP 251728
TAFAVL
TAF
KAVL 251728Z 2518/2618 33006KT P6SM FEW060 BKN250
     FM252300 27004KT P6SM SCT060 SCT250
     FM260900 VRB02KT 3SM BR FEW035
     FM261200 VRB02KT 5SM BR SCT003
     FM261300 34003KT P6SM SCT030 SCT250=

USA.gov is the U.S. government's official web portal to all federal, state and local government web resources and services.